Time;durP1;ratioP1;P1;durP2;ratioP2;P2;SDS_P1;SDS_P2;PMS_P1;PMS_P2;Temp;Humidity;BMP_temperature;BMP_pressure;BME280_temperature;BME280_humidity;BME280_pressure;Samples;Min_cycle;Max_cycle;Signal;HPM_P1;HPM_P2
2021/09/12 00:00:10;;;;;;;11.80;6.23;;;;;13.30;101368.00;;;;12842391;22;20172;-79
2021/09/12 00:05:14;;;;;;;8.93;5.90;;;;;13.20;101362.00;;;;12891682;22;20180;-79
2021/09/12 00:10:16;;;;;;;10.83;5.37;;;;;13.20;101359.00;;;;12866540;22;20196;-79
2021/09/12 00:15:17;;;;;;;10.40;6.17;;;;;13.10;101350.00;;;;12892643;22;20239;-79
2021/09/12 00:20:18;;;;;;;11.00;5.77;;;;;13.10;101332.00;;;;12867135;22;20680;-79
2021/09/12 00:25:19;;;;;;;12.83;6.27;;;;;13.00;101333.00;;;;12913175;22;20161;-79
2021/09/12 00:30:21;;;;;;;10.17;6.50;;;;;13.00;101335.00;;;;12842690;22;20190;-80
2021/09/12 00:35:22;;;;;;;14.30;6.80;;;;;13.00;101336.00;;;;12865735;22;20166;-79
2021/09/12 00:40:23;;;;;;;12.40;6.70;;;;;12.90;101325.00;;;;12866024;22;20205;-80
2021/09/12 00:45:25;;;;;;;13.03;6.97;;;;;12.90;101324.00;;;;12867066;22;20169;-80
2021/09/12 00:50:26;;;;;;;9.87;6.87;;;;;12.90;101326.00;;;;12867290;22;20220;-81
2021/09/12 00:55:27;;;;;;;15.23;7.50;;;;;12.90;101325.00;;;;12844468;22;20173;-79
2021/09/12 01:00:28;;;;;;;11.17;6.80;;;;;12.80;101330.00;;;;12867135;22;20184;-80
2021/09/12 01:05:43;;;;;;;12.17;5.93;;;;;12.80;101330.00;;;;12902106;22;20180;-80
2021/09/12 01:10:47;;;;;;;16.00;6.50;;;;;12.80;101311.00;;;;12875914;22;20189;-80
2021/09/12 01:15:48;;;;;;;14.63;6.63;;;;;12.70;101313.00;;;;12875639;22;20501;-80
2021/09/12 01:20:49;;;;;;;13.57;6.90;;;;;12.70;101328.00;;;;12875070;22;20184;-80
2021/09/12 01:25:55;;;;;;;15.73;7.03;;;;;12.60;101321.00;;;;12851609;22;20304;-80
2021/09/12 01:30:57;;;;;;;13.67;6.53;;;;;12.60;101318.00;;;;12878189;22;20206;-80
2021/09/12 01:35:58;;;;;;;8.97;7.43;;;;;12.60;101313.00;;;;12875676;22;20177;-80
2021/09/12 01:40:59;;;;;;;13.20;7.60;;;;;12.50;101318.00;;;;12901763;22;20200;-79
2021/09/12 01:46:01;;;;;;;12.63;7.60;;;;;12.50;101313.00;;;;12876870;22;20256;-80
2021/09/12 01:51:02;;;;;;;15.83;7.53;;;;;12.50;101319.00;;;;12900717;22;20220;-79
2021/09/12 01:56:03;;;;;;;10.60;7.07;;;;;12.50;101306.00;;;;12877816;22;20169;-80
2021/09/12 02:01:05;;;;;;;12.80;6.80;;;;;12.50;101302.00;;;;12875381;22;20177;-79
2021/09/12 02:06:07;;;;;;;11.80;7.13;;;;;12.50;101304.00;;;;12899720;22;20170;-80
2021/09/12 02:11:10;;;;;;;12.10;6.63;;;;;12.50;101305.00;;;;12875712;22;20205;-80
2021/09/12 02:16:12;;;;;;;16.10;7.37;;;;;12.50;101307.00;;;;12876743;23;20509;-81
2021/09/12 02:21:13;;;;;;;15.80;6.57;;;;;12.50;101311.00;;;;12875890;22;20251;-80
2021/09/12 02:26:15;;;;;;;14.90;6.57;;;;;12.50;101309.00;;;;12876187;22;20170;-80
2021/09/12 02:31:16;;;;;;;8.10;6.57;;;;;12.50;101314.00;;;;12875496;22;20198;-80
2021/09/12 02:36:17;;;;;;;9.90;6.27;;;;;12.50;101313.00;;;;12920783;22;20839;-79
2021/09/12 02:41:18;;;;;;;14.30;6.73;;;;;12.50;101317.00;;;;12876053;22;20245;-79
2021/09/12 02:46:19;;;;;;;11.17;7.17;;;;;12.40;101315.00;;;;12849818;22;20201;-79
2021/09/12 02:51:20;;;;;;;12.43;6.40;;;;;12.40;101314.00;;;;12921181;22;20185;-80
2021/09/12 02:56:22;;;;;;;10.80;6.07;;;;;12.40;101310.00;;;;12849289;22;20200;-80
2021/09/12 03:01:23;;;;;;;14.17;6.20;;;;;12.30;101328.00;;;;12919011;22;20260;-81
2021/09/12 03:06:24;;;;;;;9.17;6.17;;;;;12.30;101318.00;;;;12872970;22;20176;-80
2021/09/12 03:11:26;;;;;;;14.93;6.80;;;;;12.20;101321.00;;;;12851871;22;20280;-80
2021/09/12 03:16:27;;;;;;;15.83;7.00;;;;;12.20;101314.00;;;;12852082;22;20552;-81
2021/09/12 03:21:28;;;;;;;15.03;6.23;;;;;12.20;101312.00;;;;12879433;22;20603;-80
2021/09/12 03:26:29;;;;;;;12.50;5.90;;;;;12.10;101318.00;;;;12854253;22;20212;-80
2021/09/12 03:31:30;;;;;;;15.30;6.20;;;;;12.10;101307.00;;;;12877146;22;20276;-80
2021/09/12 03:36:31;;;;;;;16.60;5.97;;;;;12.00;101306.00;;;;12877756;22;20170;-80
2021/09/12 03:41:32;;;;;;;12.17;6.00;;;;;12.00;101305.00;;;;12877525;22;20200;-80
2021/09/12 03:46:34;;;;;;;14.17;6.80;;;;;12.00;101306.00;;;;12877090;22;20173;-79
2021/09/12 03:51:35;;;;;;;13.50;5.93;;;;;12.00;101309.00;;;;12878313;22;20244;-80
2021/09/12 03:56:36;;;;;;;13.73;6.30;;;;;12.00;101307.00;;;;12922131;22;20188;-79
2021/09/12 04:01:37;;;;;;;11.97;6.43;;;;;12.00;101312.00;;;;12878192;22;20732;-80
2021/09/12 04:06:39;;;;;;;12.37;6.90;;;;;12.00;101307.00;;;;12876888;22;20256;-79
2021/09/12 04:11:40;;;;;;;9.67;6.27;;;;;12.00;101306.00;;;;12874437;22;20272;-79
2021/09/12 04:16:43;;;;;;;12.17;6.13;;;;;12.00;101303.00;;;;12876037;22;20185;-80
2021/09/12 04:21:44;;;;;;;11.23;6.40;;;;;11.90;101299.00;;;;12900758;22;20212;-78
2021/09/12 04:26:45;;;;;;;21.30;6.90;;;;;11.90;101306.00;;;;12875703;22;20253;-79
2021/09/12 04:31:47;;;;;;;8.97;7.03;;;;;12.00;101306.00;;;;12851848;22;20193;-79
2021/09/12 04:36:48;;;;;;;12.40;6.90;;;;;12.00;101307.00;;;;12874145;22;20257;-80
2021/09/12 04:41:49;;;;;;;14.63;6.77;;;;;12.00;101312.00;;;;12901223;22;20493;-80
2021/09/12 04:46:50;;;;;;;11.60;6.27;;;;;12.10;101308.00;;;;12852878;22;20177;-80
2021/09/12 04:51:52;;;;;;;14.37;6.57;;;;;12.20;101321.00;;;;12849967;22;20201;-80
2021/09/12 04:56:53;;;;;;;12.10;6.77;;;;;12.30;101314.00;;;;12852434;22;20173;-80
2021/09/12 05:01:54;;;;;;;14.40;6.77;;;;;12.30;101310.00;;;;12851563;22;20173;-80
2021/09/12 05:06:56;;;;;;;9.23;6.53;;;;;12.30;101322.00;;;;12875138;22;20181;-80
2021/09/12 05:11:57;;;;;;;17.33;6.47;;;;;12.30;101313.00;;;;12878031;22;20331;-80
2021/09/12 05:16:58;;;;;;;10.70;6.50;;;;;12.30;101315.00;;;;12852463;22;20846;-80
2021/09/12 05:21:59;;;;;;;11.50;6.20;;;;;12.40;101314.00;;;;12876859;22;20295;-80
2021/09/12 05:27:01;;;;;;;11.37;6.57;;;;;12.50;101319.00;;;;12877297;22;20200;-80
2021/09/12 05:32:03;;;;;;;10.97;6.10;;;;;12.50;101315.00;;;;12901620;22;20225;-80
2021/09/12 05:37:04;;;;;;;15.13;6.40;;;;;12.50;101322.00;;;;12877922;22;20188;-80
2021/09/12 05:42:06;;;;;;;15.60;6.17;;;;;12.60;101324.00;;;;12902751;22;20179;-80
2021/09/12 05:47:07;;;;;;;13.57;6.30;;;;;12.80;101336.00;;;;12854049;22;20174;-80
2021/09/12 05:52:10;;;;;;;15.53;6.23;;;;;12.90;101344.00;;;;12878932;22;20816;-80
2021/09/12 05:57:11;;;;;;;11.67;5.77;;;;;13.00;101342.00;;;;12879042;22;20215;-80
2021/09/12 06:02:13;;;;;;;11.57;6.33;;;;;13.30;101349.00;;;;12852639;22;20180;-80
2021/09/12 06:07:14;;;;;;;12.73;6.33;;;;;13.80;101359.00;;;;12877729;22;20174;-80
2021/09/12 06:12:15;;;;;;;14.13;6.77;;;;;14.20;101362.00;;;;12901698;22;20835;-80
2021/09/12 06:17:17;;;;;;;11.07;6.07;;;;;14.50;101361.00;;;;12853131;22;20268;-80
2021/09/12 06:22:18;;;;;;;14.73;5.50;;;;;14.50;101364.00;;;;12901259;22;20585;-80
2021/09/12 06:27:19;;;;;;;6.63;4.57;;;;;14.70;101357.00;;;;12854041;22;20181;-80
2021/09/12 06:32:20;;;;;;;10.63;4.37;;;;;15.10;101367.00;;;;12922980;22;20187;-80
2021/09/12 06:37:21;;;;;;;7.87;4.43;;;;;15.20;101377.00;;;;12876774;22;20169;-79
2021/09/12 06:42:22;;;;;;;10.07;5.40;;;;;15.30;101379.00;;;;12875879;22;20241;-80
2021/09/12 06:47:24;;;;;;;5.87;4.03;;;;;15.40;101377.00;;;;12877559;22;20288;-80
2021/09/12 06:52:25;;;;;;;9.47;4.00;;;;;15.60;101368.00;;;;12854110;22;20208;-80
2021/09/12 06:57:26;;;;;;;6.57;3.77;;;;;15.70;101359.00;;;;12879578;22;20666;-80
2021/09/12 07:02:27;;;;;;;8.88;3.90;;;;;15.80;101369.00;;;;12854067;22;20245;-80
2021/09/12 07:07:29;;;;;;;6.80;3.55;;;;;16.00;101361.00;;;;12879685;22;20177;-80
2021/09/12 07:12:30;;;;;;;5.50;3.60;;;;;16.50;101365.00;;;;12903441;22;20284;-80
2021/09/12 07:17:31;;;;;;;7.82;3.20;;;;;16.90;101360.00;;;;12904088;22;20220;-81
2021/09/12 07:22:32;;;;;;;7.13;3.40;;;;;17.20;101358.00;;;;12878149;22;20200;-81
2021/09/12 07:27:33;;;;;;;8.10;3.28;;;;;17.20;101351.00;;;;12853886;22;20173;-81
2021/09/12 07:32:43;;;;;;;8.55;3.55;;;;;17.50;101355.00;;;;12901509;22;20196;-80
2021/09/12 07:37:44;;;;;;;13.27;3.97;;;;;17.80;101352.00;;;;12876683;23;20177;-81
2021/09/12 07:42:47;;;;;;;11.13;4.05;;;;;17.80;101359.00;;;;12852998;22;20260;-80
2021/09/12 07:47:49;;;;;;;12.85;4.32;;;;;18.00;101365.00;;;;12860923;22;20170;-80
2021/09/12 07:52:50;;;;;;;13.05;5.15;;;;;18.20;101366.00;;;;12851550;22;20208;-81
2021/09/12 07:57:52;;;;;;;6.85;5.05;;;;;18.40;101360.00;;;;12876043;22;20204;-80
2021/09/12 08:02:53;;;;;;;11.38;5.28;;;;;18.80;101369.00;;;;12900341;23;20231;-80
2021/09/12 08:07:58;;;;;;;12.85;6.30;;;;;19.00;101369.00;;;;12902453;22;20204;-80
2021/09/12 08:12:59;;;;;;;16.25;6.10;;;;;19.30;101363.00;;;;12876254;22;20201;-80
2021/09/12 08:18:00;;;;;;;13.65;4.93;;;;;19.70;101367.00;;;;12921507;22;20189;-80
2021/09/12 08:23:01;;;;;;;13.38;5.82;;;;;19.90;101366.00;;;;12879822;22;20190;-80
2021/09/12 08:28:03;;;;;;;10.23;5.28;;;;;20.10;101365.00;;;;12877090;23;20565;-80
2021/09/12 08:33:15;;;;;;;14.40;5.78;;;;;20.30;101359.00;;;;12899480;22;20696;-80
2021/09/12 08:38:16;;;;;;;11.85;6.15;;;;;20.30;101358.00;;;;12919448;22;20166;-79
2021/09/12 08:43:19;;;;;;;11.20;6.28;;;;;20.80;101345.00;;;;12899801;22;20324;-79
2021/09/12 08:48:20;;;;;;;14.15;6.65;;;;;21.50;101337.00;;;;12899678;22;20204;-80
2021/09/12 08:53:22;;;;;;;12.73;6.35;;;;;22.00;101326.00;;;;12898671;22;20200;-79
2021/09/12 08:58:24;;;;;;;9.50;5.80;;;;;22.10;101324.00;;;;12873910;22;20173;-79
2021/09/12 09:03:37;;;;;;;10.30;5.75;;;;;22.60;101331.00;;;;12875207;23;20224;-80
2021/09/12 09:08:50;;;;;;;10.82;5.15;;;;;22.90;101322.00;;;;12874995;22;20170;-80
2021/09/12 09:13:51;;;;;;;10.50;6.10;;;;;23.10;101325.00;;;;12875757;22;20837;-79
2021/09/12 09:19:04;;;;;;;9.95;5.60;;;;;23.40;101330.00;;;;12875930;22;20226;-79
2021/09/12 09:24:06;;;;;;;8.07;5.60;;;;;23.60;101323.00;;;;12874560;22;20629;-80
2021/09/12 09:29:09;;;;;;;9.43;6.10;;;;;24.00;101333.00;;;;12918435;22;20165;-80
2021/09/12 09:34:16;;;;;;;10.77;7.43;;;;;24.40;101338.00;;;;12873152;22;20197;-79
2021/09/12 09:39:51;;;;;;;14.93;9.77;;;;;24.40;101362.00;;;;12874208;22;20573;-80
2021/09/12 09:44:59;;;;;;;12.95;8.38;;;;;24.10;101365.00;;;;12844819;22;20609;-79
2021/09/12 09:50:08;;;;;;;16.00;9.30;;;;;24.50;101364.00;;;;12899514;22;20220;-79
2021/09/12 09:55:10;;;;;;;13.10;8.88;;;;;25.50;101368.00;;;;12874445;22;20232;-80
2021/09/12 10:00:12;;;;;;;16.50;8.45;;;;;25.40;101369.00;;;;12872689;22;20177;-80
2021/09/12 10:05:17;;;;;;;14.45;7.93;;;;;24.60;101371.00;;;;12892790;22;20207;-79
2021/09/12 10:10:22;;;;;;;14.50;8.95;;;;;24.20;101376.00;;;;12897281;22;20244;-79
2021/09/12 10:15:32;;;;;;;11.18;7.30;;;;;24.60;101376.00;;;;12873633;22;20186;-80
2021/09/12 10:20:37;;;;;;;12.20;7.28;;;;;25.90;101379.00;;;;12875075;22;20273;-80
2021/09/12 10:25:47;;;;;;;12.15;7.10;;;;;26.30;101375.00;;;;12899797;22;20169;-79
2021/09/12 10:30:48;;;;;;;14.07;7.03;;;;;25.20;101382.00;;;;12900961;22;20185;-79
2021/09/12 10:35:54;;;;;;;14.38;7.00;;;;;25.30;101385.00;;;;12898150;22;20173;-80
2021/09/12 10:40:55;;;;;;;12.18;7.03;;;;;26.10;101373.00;;;;12898256;22;20609;-79
2021/09/12 10:46:06;;;;;;;12.95;7.50;;;;;25.90;101382.00;;;;12848937;22;20169;-79
2021/09/12 10:51:10;;;;;;;12.85;7.85;;;;;25.20;101378.00;;;;12944681;22;20217;-79
2021/09/12 10:56:18;;;;;;;11.85;7.25;;;;;24.80;101382.00;;;;12873983;22;20173;-79
2021/09/12 11:01:55;;;;;;;9.85;6.43;;;;;25.50;101378.00;;;;12924827;22;20189;-79
2021/09/12 11:07:02;;;;;;;9.95;6.70;;;;;25.60;101380.00;;;;12920836;22;20264;-80
2021/09/12 11:12:04;;;;;;;9.35;6.65;;;;;25.30;101371.00;;;;12894573;22;20189;-80
2021/09/12 11:17:10;;;;;;;9.50;6.28;;;;;24.30;101368.00;;;;12873200;22;20174;-79
2021/09/12 11:22:11;;;;;;;10.65;6.45;;;;;24.70;101366.00;;;;12874819;23;20199;-80
2021/09/12 11:27:12;;;;;;;7.45;6.32;;;;;26.00;101350.00;;;;12850679;23;20186;-80
2021/09/12 11:32:15;;;;;;;8.35;6.47;;;;;24.90;101357.00;;;;12874666;22;20252;-79
2021/09/12 11:37:22;;;;;;;16.95;7.00;;;;;25.20;101364.00;;;;12920164;22;20161;-79
2021/09/12 11:42:24;;;;;;;7.63;5.57;;;;;25.80;101358.00;;;;12899902;22;20177;-80
2021/09/12 11:47:26;;;;;;;9.95;6.53;;;;;26.80;101358.00;;;;12875841;22;20500;-80
2021/09/12 11:52:38;;;;;;;9.13;6.13;;;;;26.60;101350.00;;;;12851432;22;20197;-80
2021/09/12 11:57:40;;;;;;;9.90;5.57;;;;;25.60;101360.00;;;;12901861;22;20236;-80
2021/09/12 12:02:43;;;;;;;9.10;5.82;;;;;25.00;101360.00;;;;12902071;22;20174;-79
2021/09/12 12:07:44;;;;;;;9.55;7.07;;;;;24.60;101361.00;;;;12899548;22;20194;-80
2021/09/12 12:12:47;;;;;;;9.32;6.88;;;;;24.60;101357.00;;;;12875417;22;20225;-80
2021/09/12 12:17:53;;;;;;;10.82;6.30;;;;;24.10;101349.00;;;;12921611;22;20609;-79
2021/09/12 12:22:54;;;;;;;10.57;7.00;;;;;23.80;101359.00;;;;12900811;22;20197;-79
2021/09/12 12:27:56;;;;;;;10.50;6.85;;;;;23.90;101346.00;;;;12900595;22;20580;-79
2021/09/12 12:32:57;;;;;;;7.68;6.18;;;;;23.80;101342.00;;;;12924999;22;20201;-80
2021/09/12 12:37:58;;;;;;;9.80;6.63;;;;;23.90;101346.00;;;;12899663;22;20797;-79
2021/09/12 12:43:06;;;;;;;7.40;5.60;;;;;24.10;101357.00;;;;12898265;22;20173;-80
2021/09/12 12:48:07;;;;;;;9.00;6.78;;;;;24.90;101348.00;;;;12899413;22;20166;-80
2021/09/12 12:53:34;;;;;;;10.13;6.40;;;;;25.00;101348.00;;;;12876664;22;20189;-80
2021/09/12 12:58:36;;;;;;;8.93;6.07;;;;;24.90;101348.00;;;;12901180;22;20177;-80
2021/09/12 13:03:39;;;;;;;8.60;5.75;;;;;25.30;101338.00;;;;12876097;23;20173;-80
2021/09/12 13:08:42;;;;;;;8.32;5.85;;;;;25.00;101339.00;;;;12876310;22;20197;-80
2021/09/12 13:13:43;;;;;;;9.50;6.07;;;;;24.60;101335.00;;;;12875045;23;20221;-81
2021/09/12 13:18:45;;;;;;;9.43;5.78;;;;;24.00;101333.00;;;;12874840;22;20197;-80
2021/09/12 13:23:46;;;;;;;9.60;6.38;;;;;24.00;101335.00;;;;12873067;22;20257;-79
2021/09/12 13:28:47;;;;;;;7.47;5.07;;;;;24.20;101325.00;;;;12850481;23;20180;-79
2021/09/12 13:33:50;;;;;;;6.70;5.20;;;;;24.20;101319.00;;;;12948957;22;20211;-80
2021/09/12 13:38:52;;;;;;;7.95;4.75;;;;;24.00;101320.00;;;;12851008;22;20725;-79
2021/09/12 13:43:53;;;;;;;7.88;5.18;;;;;24.30;101321.00;;;;12901195;22;20173;-79
2021/09/12 13:48:54;;;;;;;6.60;5.25;;;;;24.70;101316.00;;;;12948313;22;20170;-80
2021/09/12 13:53:56;;;;;;;9.10;6.15;;;;;24.50;101309.00;;;;12874392;22;20240;-80
2021/09/12 13:58:57;;;;;;;8.77;4.93;;;;;24.80;101307.00;;;;12873278;22;20479;-80
2021/09/12 14:03:58;;;;;;;9.20;5.60;;;;;24.40;101313.00;;;;12872784;22;20173;-80
2021/09/12 14:08:59;;;;;;;6.95;4.63;;;;;24.40;101306.00;;;;12876039;22;20173;-79
2021/09/12 14:14:02;;;;;;;5.75;4.72;;;;;24.10;101313.00;;;;12858695;23;20951;-79
2021/09/12 14:19:03;;;;;;;6.70;4.53;;;;;23.90;101311.00;;;;12863311;22;20170;-79
2021/09/12 14:24:05;;;;;;;5.80;4.30;;;;;24.00;101305.00;;;;12859809;22;20185;-79
2021/09/12 14:29:06;;;;;;;5.22;3.88;;;;;23.60;101299.00;;;;12860688;22;20193;-80
2021/09/12 14:34:07;;;;;;;5.65;4.57;;;;;23.30;101305.00;;;;12860624;22;20197;-79
2021/09/12 14:39:09;;;;;;;7.07;5.00;;;;;23.20;101298.00;;;;12862551;23;20174;-79
2021/09/12 14:44:10;;;;;;;6.80;4.05;;;;;23.20;101299.00;;;;12864682;22;20201;-79
2021/09/12 14:49:11;;;;;;;8.55;5.10;;;;;23.50;101299.00;;;;12913902;22;20172;-79
2021/09/12 14:54:14;;;;;;;4.95;4.18;;;;;23.30;101293.00;;;;12888535;22;20193;-79
2021/09/12 14:59:21;;;;;;;5.97;4.50;;;;;23.80;101277.00;;;;12911823;22;20170;-79
2021/09/12 15:04:23;;;;;;;5.97;4.22;;;;;24.40;101283.00;;;;12887741;22;20229;-79
2021/09/12 15:09:26;;;;;;;4.60;4.20;;;;;24.10;101283.00;;;;12894651;22;20186;-79
2021/09/12 15:14:27;;;;;;;6.63;5.00;;;;;24.20;101275.00;;;;12868380;22;20200;-79
2021/09/12 15:19:28;;;;;;;5.75;5.25;;;;;24.20;101276.00;;;;12863476;22;20228;-79
2021/09/12 15:24:29;;;;;;;6.72;4.93;;;;;23.90;101271.00;;;;12841573;22;20197;-79
2021/09/12 15:29:30;;;;;;;7.28;5.45;;;;;23.60;101270.00;;;;12892530;22;20177;-80
2021/09/12 15:34:31;;;;;;;5.88;4.85;;;;;23.10;101279.00;;;;12867901;22;20203;-78
2021/09/12 15:39:33;;;;;;;6.82;4.68;;;;;22.90;101283.00;;;;12893273;22;20255;-78
2021/09/12 15:44:35;;;;;;;7.00;4.85;;;;;22.50;101275.00;;;;12869846;22;20177;-79
2021/09/12 15:49:36;;;;;;;11.30;6.85;;;;;22.30;101281.00;;;;12867161;22;20174;-79
2021/09/12 15:54:38;;;;;;;12.15;7.55;;;;;22.00;101280.00;;;;12891923;22;20200;-79
2021/09/12 15:59:39;;;;;;;8.85;7.18;;;;;21.70;101287.00;;;;12868754;22;20187;-79
2021/09/12 16:04:40;;;;;;;12.18;7.40;;;;;21.60;101273.00;;;;12913112;22;20221;-79
2021/09/12 16:09:42;;;;;;;9.65;7.20;;;;;21.40;101281.00;;;;12868191;22;20178;-79
2021/09/12 16:14:43;;;;;;;8.77;7.90;;;;;21.30;101294.00;;;;12916698;22;20593;-79
2021/09/12 16:19:44;;;;;;;11.02;8.35;;;;;21.20;101287.00;;;;12893022;22;20196;-79
2021/09/12 16:24:45;;;;;;;9.73;8.07;;;;;21.00;101282.00;;;;12918026;22;20295;-79
2021/09/12 16:29:49;;;;;;;12.18;8.63;;;;;20.90;101282.00;;;;12922037;22;20272;-78
2021/09/12 16:34:50;;;;;;;8.38;7.55;;;;;20.80;101282.00;;;;12892668;22;20201;-78
2021/09/12 16:39:52;;;;;;;9.82;7.80;;;;;20.70;101284.00;;;;12873278;22;20177;-78
2021/09/12 16:44:59;;;;;;;8.73;6.85;;;;;20.70;101286.00;;;;12927528;22;20184;-79
2021/09/12 16:50:02;;;;;;;7.68;6.90;;;;;20.60;101276.00;;;;12922586;22;20176;-78
2021/09/12 16:55:06;;;;;;;8.63;7.22;;;;;20.60;101270.00;;;;12925471;22;20464;-78
2021/09/12 17:00:08;;;;;;;8.25;7.20;;;;;20.60;101274.00;;;;12873595;22;20268;-78
2021/09/12 17:05:09;;;;;;;8.73;6.90;;;;;20.50;101281.00;;;;12878206;23;20225;-79
2021/09/12 17:10:11;;;;;;;7.63;6.90;;;;;20.50;101271.00;;;;12903398;22;20251;-79
2021/09/12 17:15:14;;;;;;;7.70;6.90;;;;;20.40;101275.00;;;;12926284;22;20173;-78
2021/09/12 17:20:16;;;;;;;10.35;7.13;;;;;20.40;101279.00;;;;12880161;22;20182;-78
2021/09/12 17:25:25;;;;;;;9.07;7.15;;;;;20.30;101273.00;;;;12902862;22;20203;-79
2021/09/12 17:30:26;;;;;;;8.60;7.47;;;;;20.10;101277.00;;;;12948716;22;20161;-79
2021/09/12 17:35:30;;;;;;;9.05;7.38;;;;;19.90;101283.00;;;;12876577;22;20180;-78
2021/09/12 17:40:31;;;;;;;8.38;7.38;;;;;19.70;101283.00;;;;12878057;22;20208;-78
2021/09/12 17:45:33;;;;;;;7.72;7.03;;;;;19.50;101291.00;;;;12905997;22;20604;-79
2021/09/12 17:50:34;;;;;;;8.98;6.70;;;;;19.30;101296.00;;;;12932017;22;20234;-79
2021/09/12 17:55:35;;;;;;;9.57;8.05;;;;;19.10;101293.00;;;;12874791;22;20189;-80
2021/09/12 18:00:37;;;;;;;9.25;7.15;;;;;19.10;101296.00;;;;12896004;22;20192;-80
2021/09/12 18:05:38;;;;;;;8.93;7.38;;;;;18.90;101298.00;;;;12876054;22;20185;-79
2021/09/12 18:10:39;;;;;;;12.02;7.80;;;;;18.80;101298.00;;;;12847058;22;20204;-79
2021/09/12 18:15:40;;;;;;;9.27;7.55;;;;;18.60;101297.00;;;;12895832;22;20188;-79
2021/09/12 18:20:42;;;;;;;8.65;7.68;;;;;18.50;101306.00;;;;12943200;22;20250;-78
2021/09/12 18:25:43;;;;;;;8.40;6.88;;;;;18.30;101307.00;;;;12875148;22;20186;-79
2021/09/12 18:30:45;;;;;;;8.00;6.95;;;;;18.20;101306.00;;;;12893491;22;20201;-80
2021/09/12 18:35:48;;;;;;;8.65;7.75;;;;;18.00;101309.00;;;;12867349;22;20176;-79
2021/09/12 18:40:49;;;;;;;7.75;6.47;;;;;17.90;101314.00;;;;12869539;22;20413;-79
2021/09/12 18:45:52;;;;;;;10.85;7.47;;;;;17.70;101330.00;;;;12842863;22;20173;-79
2021/09/12 18:50:54;;;;;;;8.27;7.47;;;;;17.60;101329.00;;;;12884749;22;20608;-78
2021/09/12 18:55:55;;;;;;;8.88;7.43;;;;;17.50;101340.00;;;;12833019;22;20177;-79
2021/09/12 19:00:56;;;;;;;10.38;7.38;;;;;17.30;101334.00;;;;12838920;22;20188;-80
2021/09/12 19:05:58;;;;;;;8.15;6.90;;;;;17.10;101329.00;;;;12863130;22;20253;-79
2021/09/12 19:10:59;;;;;;;8.70;7.80;;;;;16.90;101333.00;;;;12807148;22;20201;-80
2021/09/12 19:23:36;;;;;;;8.65;7.85;;;;;16.50;101343.00;;;;12936195;22;20189;-79
2021/09/12 19:28:38;;;;;;;10.02;8.25;;;;;16.40;101335.00;;;;12887679;22;20173;-79
2021/09/12 19:33:42;;;;;;;13.02;7.97;;;;;16.30;101341.00;;;;12894239;22;20190;-80
2021/09/12 19:38:43;;;;;;;11.32;8.40;;;;;16.20;101342.00;;;;12867671;22;20177;-79
2021/09/12 19:43:45;;;;;;;11.93;8.38;;;;;16.10;101344.00;;;;12875892;22;20178;-79
2021/09/12 19:48:47;;;;;;;12.87;9.10;;;;;16.00;101346.00;;;;12874971;22;20181;-80
2021/09/12 19:53:52;;;;;;;10.02;8.90;;;;;15.90;101343.00;;;;12854341;22;20247;-79
2021/09/12 19:58:53;;;;;;;10.20;7.67;;;;;15.90;101346.00;;;;12878311;22;20193;-79
2021/09/12 20:03:55;;;;;;;10.82;7.28;;;;;15.90;101345.00;;;;12874210;22;20205;-79
2021/09/12 20:08:57;;;;;;;7.75;6.80;;;;;16.00;101359.00;;;;12870903;22;20200;-79
2021/09/12 20:13:58;;;;;;;7.15;6.10;;;;;16.00;101365.00;;;;12867033;22;20201;-80
2021/09/12 20:18:59;;;;;;;8.77;5.00;;;;;16.00;101369.00;;;;12864738;22;20177;-80
2021/09/12 20:24:14;;;;;;;5.57;5.03;;;;;15.90;101367.00;;;;12872214;22;20193;-79
2021/09/12 20:29:28;;;;;;;6.13;5.22;;;;;15.80;101363.00;;;;12875033;22;20180;-79
2021/09/12 20:34:29;;;;;;;5.78;5.22;;;;;15.70;101365.00;;;;12894752;22;20208;-79
2021/09/12 20:40:04;;;;;;;6.23;5.63;;;;;15.70;101368.00;;;;12936946;22;20583;-92
2021/09/12 20:45:07;;;;;;;6.67;5.60;;;;;15.60;101372.00;;;;12770438;23;20178;-79
2021/09/12 20:50:09;;;;;;;6.27;5.40;;;;;15.60;101365.00;;;;12760866;23;20183;-78
2021/09/12 20:55:13;;;;;;;5.27;4.77;;;;;15.60;101370.00;;;;12763641;23;20209;-78
2021/09/12 21:00:15;;;;;;;6.93;5.23;;;;;15.50;101374.00;;;;12739014;23;20206;-79
2021/09/12 21:05:16;;;;;;;6.75;6.00;;;;;15.40;101384.00;;;;12789190;23;20170;-78
2021/09/12 21:10:17;;;;;;;9.50;6.17;;;;;15.50;101389.00;;;;12763983;23;20269;-79
2021/09/12 21:15:18;;;;;;;6.70;6.00;;;;;15.50;101386.00;;;;12807304;23;20653;-78
2021/09/12 21:20:19;;;;;;;6.20;5.70;;;;;15.40;101384.00;;;;12763476;23;20171;-79
2021/09/12 21:25:21;;;;;;;6.85;6.00;;;;;15.40;101383.00;;;;12788783;23;20186;-79
2021/09/12 21:30:22;;;;;;;6.97;5.33;;;;;15.30;101390.00;;;;12764190;23;20982;-80
2021/09/12 21:35:23;;;;;;;6.50;5.23;;;;;15.20;101397.00;;;;12792598;23;20171;-78
2021/09/12 21:40:24;;;;;;;9.70;4.90;;;;;15.20;101392.00;;;;12788783;23;20850;-79
2021/09/12 21:45:26;;;;;;;6.40;4.90;;;;;15.20;101404.00;;;;12773057;23;20198;-77
2021/09/12 21:50:27;;;;;;;5.47;4.77;;;;;15.20;101403.00;;;;12773130;23;20175;-78
2021/09/12 21:55:28;;;;;;;8.63;5.63;;;;;15.10;101402.00;;;;12823393;23;20226;-78
2021/09/12 22:00:33;;;;;;;6.00;5.40;;;;;15.00;101411.00;;;;12799448;23;20716;-78
2021/09/12 22:05:34;;;;;;;9.07;5.83;;;;;15.00;101414.00;;;;12819639;23;20213;-77
2021/09/12 22:10:35;;;;;;;9.57;6.47;;;;;14.90;101411.00;;;;12776417;23;20632;-78
2021/09/12 22:15:37;;;;;;;6.47;5.80;;;;;14.90;101414.00;;;;12773294;23;20178;-78
2021/09/12 22:20:40;;;;;;;8.70;6.30;;;;;14.80;101422.00;;;;12750411;23;20181;-77
2021/09/12 22:25:41;;;;;;;11.73;7.20;;;;;14.80;101420.00;;;;12820798;23;20178;-77
2021/09/12 22:30:44;;;;;;;11.07;6.20;;;;;14.70;101420.00;;;;12751350;23;20197;-79
2021/09/12 22:35:46;;;;;;;8.10;5.87;;;;;14.70;101409.00;;;;12750947;23;20261;-78
2021/09/12 22:40:47;;;;;;;7.80;6.23;;;;;14.60;101416.00;;;;12725971;23;20206;-78
2021/09/12 22:45:50;;;;;;;9.73;6.70;;;;;14.60;101416.00;;;;12750827;23;20206;-77
2021/09/12 22:50:51;;;;;;;9.67;6.50;;;;;14.50;101416.00;;;;12801309;23;20495;-77
2021/09/12 22:55:52;;;;;;;7.37;6.67;;;;;14.40;101422.00;;;;12775395;23;20167;-78
2021/09/12 23:00:53;;;;;;;8.83;7.20;;;;;14.40;101434.00;;;;12776923;23;20185;-78
2021/09/12 23:05:55;;;;;;;9.70;6.90;;;;;14.30;101425.00;;;;12800095;23;20606;-78
2021/09/12 23:10:58;;;;;;;10.70;7.13;;;;;14.20;101418.00;;;;12798310;23;20263;-77
2021/09/12 23:15:59;;;;;;;9.83;7.53;;;;;14.10;101404.00;;;;12726433;23;20181;-78
2021/09/12 23:21:01;;;;;;;10.07;7.60;;;;;14.10;101408.00;;;;12751395;23;20171;-77
2021/09/12 23:26:02;;;;;;;10.87;7.83;;;;;14.00;101409.00;;;;12725321;23;20174;-78
2021/09/12 23:31:03;;;;;;;12.60;7.93;;;;;13.90;101416.00;;;;12799210;23;20230;-79
2021/09/12 23:36:05;;;;;;;10.37;8.60;;;;;13.90;101410.00;;;;12800149;23;20685;-79
2021/09/12 23:41:06;;;;;;;12.77;9.37;;;;;13.90;101411.00;;;;12801012;23;20881;-78
2021/09/12 23:46:07;;;;;;;14.57;9.00;;;;;13.90;101403.00;;;;12819777;23;20166;-78
2021/09/12 23:51:08;;;;;;;11.03;8.63;;;;;13.90;101408.00;;;;12797345;23;20187;-79
2021/09/12 23:56:10;;;;;;;11.20;9.30;;;;;13.90;101403.00;;;;12800865;23;20192;-79
